createdAt,value
2023-05-19T00:00:14.085Z,102406.84
2023-05-19T00:01:14.691Z,102406.61
2023-05-19T00:02:15.369Z,102406.30
2023-05-19T00:03:15.502Z,102405.63
2023-05-19T00:04:15.402Z,102405.45
2023-05-19T00:05:15.988Z,102404.21
2023-05-19T00:06:17.042Z,102403.56
2023-05-19T00:07:17.485Z,102402.45
2023-05-19T00:08:18.031Z,102401.32
2023-05-19T00:09:18.699Z,102400.20
2023-05-19T00:10:18.825Z,102399.21
2023-05-19T00:11:19.728Z,102397.31
2023-05-19T00:12:20.221Z,102395.98
2023-05-19T00:13:20.856Z,102394.47
2023-05-19T00:14:21.304Z,102392.39
2023-05-19T00:15:21.848Z,102391.34
2023-05-19T00:16:22.870Z,102389.80
2023-05-19T00:17:23.192Z,102388.81
2023-05-19T00:18:23.944Z,102388.14
2023-05-19T00:19:25.205Z,102387.34
2023-05-19T00:20:25.609Z,102386.23
2023-05-19T00:21:26.236Z,102385.23
2023-05-19T00:22:26.682Z,102384.85
2023-05-19T00:23:27.647Z,102383.49
2023-05-19T00:23:36.326Z,101955.05
2023-05-19T00:24:36.387Z,102370.43
2023-05-19T00:25:36.901Z,102369.91
2023-05-19T00:26:37.340Z,102368.92
2023-05-19T00:27:37.807Z,102367.75
2023-05-19T00:28:38.760Z,102367.59
2023-05-19T00:29:39.283Z,102366.88
2023-05-19T00:30:39.816Z,102366.55
2023-05-19T00:31:40.319Z,102365.73
2023-05-19T00:32:41.161Z,102365.53
2023-05-19T00:33:41.532Z,102365.33
2023-05-19T00:34:41.996Z,102364.86
2023-05-19T00:35:42.883Z,102365.30
2023-05-19T00:36:43.477Z,102365.11
2023-05-19T00:37:43.854Z,102365.05
2023-05-19T00:38:44.526Z,102364.83
2023-05-19T00:39:45.447Z,102364.16
2023-05-19T00:40:46.160Z,102363.19
2023-05-19T00:41:46.257Z,102362.78
2023-05-19T00:42:46.819Z,102362.34
2023-05-19T00:43:47.396Z,102361.87
2023-05-19T00:44:47.804Z,102361.30
2023-05-19T00:45:48.058Z,102360.95
2023-05-19T00:46:49.067Z,102361.05
2023-05-19T00:47:49.063Z,102361.14
2023-05-19T00:48:49.425Z,102361.39
2023-05-19T00:49:50.087Z,102360.91
2023-05-19T00:50:50.611Z,102360.63
2023-05-19T00:51:51.233Z,102359.98
2023-05-19T00:52:51.738Z,102359.16
2023-05-19T00:53:52.298Z,102358.41
2023-05-19T00:54:53.094Z,102358.44
2023-05-19T00:55:53.721Z,102357.71
2023-05-19T00:56:02.515Z,102047.47
2023-05-19T00:57:03.106Z,102350.97
2023-05-19T00:58:03.185Z,102350.55
2023-05-19T00:59:03.348Z,102350.46
2023-05-19T01:00:03.999Z,102350.19
2023-05-19T01:01:05.004Z,102350.36
2023-05-19T01:02:05.083Z,102349.61
2023-05-19T01:03:05.211Z,102349.92
2023-05-19T01:04:05.778Z,102350.50
2023-05-19T01:05:05.832Z,102350.84
2023-05-19T01:06:06.497Z,102351.00
2023-05-19T01:07:07.342Z,102351.34
2023-05-19T01:08:07.418Z,102351.17
2023-05-19T01:09:07.900Z,102351.17
2023-05-19T01:10:08.412Z,102350.77
2023-05-19T01:11:09.123Z,102350.42
2023-05-19T01:12:09.203Z,102348.56
2023-05-19T01:13:09.871Z,102347.91
2023-05-19T01:14:10.432Z,102346.64
2023-05-19T01:15:10.996Z,102345.80
2023-05-19T01:16:11.747Z,102344.19
2023-05-19T01:17:12.072Z,102342.53
2023-05-19T01:18:12.349Z,102341.34
2023-05-19T01:19:12.914Z,102339.84
2023-05-19T01:20:13.769Z,102338.27
2023-05-19T01:21:13.836Z,102336.98
2023-05-19T01:22:14.134Z,102335.99
2023-05-19T01:23:14.732Z,102335.23
2023-05-19T01:24:14.798Z,102334.63
2023-05-19T01:25:15.578Z,102334.40
2023-05-19T01:26:16.347Z,102333.73
2023-05-19T01:27:17.060Z,102333.76
2023-05-19T01:28:17.934Z,102333.52
2023-05-19T01:29:18.155Z,102332.44
2023-05-19T01:30:19.728Z,102331.77
2023-05-19T01:30:31.583Z,102110.05
2023-05-19T01:31:31.561Z,102322.72
2023-05-19T01:32:32.232Z,102321.28
2023-05-19T01:33:32.907Z,102320.44
2023-05-19T01:34:33.328Z,102319.76
2023-05-19T01:35:34.232Z,102319.09
2023-05-19T01:36:34.499Z,102318.27
2023-05-19T01:37:34.812Z,102317.96
2023-05-19T01:38:34.861Z,102317.72
2023-05-19T01:39:35.580Z,102317.24
2023-05-19T01:40:36.286Z,102316.66
2023-05-19T01:41:36.723Z,102316.19
2023-05-19T01:42:37.396Z,102316.39
2023-05-19T01:43:37.385Z,102315.71
2023-05-19T01:44:37.576Z,102315.33
2023-05-19T01:45:38.005Z,102315.06
2023-05-19T01:46:38.072Z,102314.32
2023-05-19T01:47:38.748Z,102313.66
2023-05-19T01:48:39.479Z,102313.33
2023-05-19T01:49:40.268Z,102313.09
2023-05-19T01:50:41.069Z,102312.52
2023-05-19T01:51:41.145Z,102312.17
2023-05-19T01:52:41.174Z,102311.77
2023-05-19T01:53:41.876Z,102311.79
2023-05-19T01:54:42.816Z,102311.20
2023-05-19T01:55:43.496Z,102310.88
2023-05-19T01:56:44.008Z,102310.53
2023-05-19T01:57:44.328Z,102310.05
2023-05-19T01:58:45.278Z,102309.62
2023-05-19T01:59:45.957Z,102309.87
2023-05-19T02:00:46.579Z,102309.55
2023-05-19T02:01:46.946Z,102308.53
2023-05-19T02:02:47.140Z,102308.61
2023-05-19T02:03:47.890Z,102308.05
2023-05-19T02:03:58.658Z,102054.20
2023-05-19T02:04:59.187Z,102298.03
2023-05-19T02:05:59.783Z,102297.97
2023-05-19T02:07:00.396Z,102297.72
2023-05-19T02:08:01.005Z,102296.95
2023-05-19T02:09:01.489Z,102296.78
2023-05-19T02:10:02.286Z,102296.20
2023-05-19T02:11:02.777Z,102295.86
2023-05-19T02:12:03.367Z,102295.28
2023-05-19T02:13:03.381Z,102295.02
2023-05-19T02:14:04.161Z,102295.01
2023-05-19T02:15:04.283Z,102294.78
2023-05-19T02:16:05.084Z,102294.09
2023-05-19T02:17:05.642Z,102294.34
2023-05-19T02:18:05.795Z,102293.96
2023-05-19T02:19:07.538Z,102293.97
2023-05-19T02:20:07.146Z,102293.22
2023-05-19T02:21:07.902Z,102292.72
2023-05-19T02:22:08.883Z,102292.00
2023-05-19T02:23:09.593Z,102291.08
2023-05-19T02:24:10.170Z,102290.44
2023-05-19T02:25:10.780Z,102289.59
2023-05-19T02:26:11.317Z,102288.86
2023-05-19T02:27:11.881Z,102287.78
2023-05-19T02:28:12.672Z,102287.08
2023-05-19T02:29:13.230Z,102286.34
2023-05-19T02:30:13.899Z,102285.23
2023-05-19T02:31:14.439Z,102283.72
2023-05-19T02:32:14.938Z,102282.08
2023-05-19T02:33:15.319Z,102280.91
2023-05-19T02:34:15.435Z,102279.16
2023-05-19T02:35:15.916Z,102277.70
2023-05-19T02:36:16.766Z,102275.87
2023-05-19T02:37:17.543Z,102274.30
2023-05-19T02:37:26.750Z,101976.70
2023-05-19T02:38:26.811Z,102250.41
2023-05-19T02:39:27.348Z,102250.06
2023-05-19T02:40:28.279Z,102249.90
2023-05-19T02:41:28.848Z,102249.08
2023-05-19T02:42:29.424Z,102248.57
2023-05-19T02:43:29.970Z,102248.06
2023-05-19T02:44:30.490Z,102247.14
2023-05-19T02:45:31.507Z,102246.39
2023-05-19T02:46:31.739Z,102245.57
2023-05-19T02:47:36.129Z,102244.38
2023-05-19T02:48:32.672Z,102243.79
2023-05-19T02:49:33.139Z,102242.97
2023-05-19T02:50:34.147Z,102242.55
2023-05-19T02:51:34.623Z,102241.72
2023-05-19T02:52:35.407Z,102240.53
2023-05-19T02:53:36.268Z,102239.98
2023-05-19T02:54:36.460Z,102239.13
2023-05-19T02:55:37.222Z,102238.56
2023-05-19T02:56:37.456Z,102238.48
2023-05-19T02:57:37.898Z,102238.25
2023-05-19T02:58:38.510Z,102237.64
2023-05-19T02:59:39.192Z,102236.98
2023-05-19T03:00:39.375Z,102236.74
2023-05-19T03:01:40.411Z,102236.59
2023-05-19T03:02:41.121Z,102236.92
2023-05-19T03:03:41.753Z,102236.76
2023-05-19T03:04:42.512Z,102236.59
2023-05-19T03:05:42.745Z,102236.31
2023-05-19T03:06:42.775Z,102235.71
2023-05-19T03:07:43.345Z,102235.57
2023-05-19T03:08:43.848Z,102235.00
2023-05-19T03:09:44.709Z,102234.36
2023-05-19T03:10:45.188Z,102233.36
2023-05-19T03:10:54.014Z,102027.72
2023-05-19T03:11:54.662Z,102215.33
2023-05-19T03:12:55.502Z,102215.52
2023-05-19T03:13:56.144Z,102215.20
2023-05-19T03:14:56.626Z,102215.25
2023-05-19T03:15:57.236Z,102215.02
2023-05-19T03:16:57.902Z,102214.93
2023-05-19T03:17:58.301Z,102214.15
2023-05-19T03:18:58.394Z,102213.98
2023-05-19T03:19:58.734Z,102213.64
2023-05-19T03:20:59.557Z,102213.48
2023-05-19T03:22:00.122Z,102213.14
2023-05-19T03:23:00.881Z,102212.97
2023-05-19T03:24:01.380Z,102212.89
2023-05-19T03:25:01.970Z,102212.81
2023-05-19T03:26:02.357Z,102211.89
2023-05-19T03:27:03.247Z,102212.05
2023-05-19T03:28:03.254Z,102211.73
2023-05-19T03:29:03.681Z,102212.25
2023-05-19T03:30:06.482Z,102212.26
2023-05-19T03:31:05.133Z,102211.76
2023-05-19T03:32:05.738Z,102211.17
2023-05-19T03:33:06.312Z,102210.50
2023-05-19T03:34:07.116Z,102210.19
2023-05-19T03:35:08.041Z,102209.00
2023-05-19T03:36:08.648Z,102207.67
2023-05-19T03:37:09.194Z,102206.91
2023-05-19T03:38:09.731Z,102205.92
2023-05-19T03:39:10.259Z,102205.34
2023-05-19T03:40:10.842Z,102204.50
2023-05-19T03:41:11.513Z,102204.00
2023-05-19T03:42:12.097Z,102202.84
2023-05-19T03:43:12.588Z,102202.23
2023-05-19T03:44:13.080Z,102200.89
2023-05-19T03:45:13.849Z,102199.72
2023-05-19T03:45:24.470Z,101810.12
2023-05-19T03:46:25.045Z,102178.08
2023-05-19T03:47:25.917Z,102177.65
2023-05-19T03:48:26.897Z,102177.41
2023-05-19T03:49:27.506Z,102177.55
2023-05-19T03:50:28.359Z,102176.97
2023-05-19T03:51:29.119Z,102176.83
2023-05-19T03:52:30.827Z,102176.31
2023-05-19T03:53:30.682Z,102175.40
2023-05-19T03:54:31.526Z,102175.39
2023-05-19T03:55:32.317Z,102175.23
2023-05-19T03:56:33.618Z,102174.92
2023-05-19T03:57:33.494Z,102174.83
2023-05-19T03:58:34.219Z,102174.41
2023-05-19T03:59:34.901Z,102174.41
2023-05-19T04:00:35.770Z,102173.81
2023-05-19T04:01:36.015Z,102173.25
2023-05-19T04:02:36.540Z,102173.16
2023-05-19T04:03:37.048Z,102172.82
2023-05-19T04:04:38.204Z,102173.25
2023-05-19T04:05:38.679Z,102172.91
2023-05-19T04:06:39.413Z,102172.91
2023-05-19T04:07:40.375Z,102172.91
2023-05-19T04:08:40.865Z,102173.00
2023-05-19T04:09:41.431Z,102173.31
2023-05-19T04:10:42.070Z,102173.41
2023-05-19T04:11:42.539Z,102173.58
2023-05-19T04:12:43.026Z,102173.30
2023-05-19T04:13:45.092Z,102173.06
2023-05-19T04:14:44.251Z,102173.07
2023-05-19T04:15:44.846Z,102172.96
2023-05-19T04:16:45.164Z,102173.31
2023-05-19T04:17:45.702Z,102173.38
2023-05-19T04:18:46.639Z,102173.14
2023-05-19T04:18:55.070Z,102161.77
2023-05-19T04:19:55.709Z,102162.70
2023-05-19T04:20:56.351Z,102163.36
2023-05-19T04:21:57.031Z,102163.53
2023-05-19T04:22:57.690Z,102163.70
2023-05-19T04:23:58.397Z,102164.18
2023-05-19T04:24:59.277Z,102164.35
2023-05-19T04:26:05.173Z,102163.98
2023-05-19T04:27:35.516Z,102150.02
2023-05-19T04:28:35.322Z,102152.11
2023-05-19T04:29:36.240Z,102152.93
2023-05-19T04:31:09.476Z,102142.37
2023-05-19T04:32:09.931Z,102144.03
2023-05-19T04:33:10.476Z,102145.43
2023-05-19T04:34:10.609Z,102147.27
2023-05-19T04:35:11.188Z,102148.16
2023-05-19T04:36:11.733Z,102149.00
2023-05-19T04:37:12.313Z,102149.78
2023-05-19T04:38:12.617Z,102149.93
2023-05-19T04:39:13.556Z,102150.48
2023-05-19T04:40:14.041Z,102151.07
2023-05-19T04:41:14.481Z,102151.55
2023-05-19T04:42:14.971Z,102152.00
2023-05-19T04:43:15.382Z,102152.80
2023-05-19T04:44:15.836Z,102153.83
2023-05-19T04:45:16.682Z,102154.69
2023-05-19T04:46:17.149Z,102155.84
2023-05-19T04:47:18.031Z,102156.50
2023-05-19T04:48:19.827Z,102157.29
2023-05-19T04:49:19.758Z,102159.63
2023-05-19T04:50:20.185Z,102162.69
2023-05-19T04:51:20.702Z,102165.48
2023-05-19T04:52:20.899Z,102168.83
2023-05-19T04:53:21.571Z,102172.40
2023-05-19T04:54:22.279Z,102175.61
2023-05-19T04:55:23.885Z,102180.63
2023-05-19T04:56:24.098Z,102186.25
2023-05-19T04:57:23.935Z,102193.34
2023-05-19T04:57:32.553Z,102199.75
2023-05-19T04:58:33.295Z,102206.74
2023-05-19T04:59:33.921Z,102212.27
2023-05-19T05:00:34.280Z,102219.08
2023-05-19T05:01:34.661Z,102225.45
2023-05-19T05:02:35.158Z,102232.47
2023-05-19T05:03:35.753Z,102239.33
2023-05-19T05:04:36.358Z,102247.36
2023-05-19T05:05:36.800Z,102254.75
2023-05-19T05:06:37.422Z,102262.53
2023-05-19T05:07:38.073Z,102270.98
2023-05-19T05:08:38.933Z,102279.26
2023-05-19T05:09:39.693Z,102287.30
2023-05-19T05:10:40.107Z,102294.80
2023-05-19T05:11:40.681Z,102302.13
2023-05-19T05:12:41.219Z,102309.77
2023-05-19T05:13:41.874Z,102316.28
2023-05-19T05:14:42.394Z,102322.80
2023-05-19T05:15:42.808Z,102329.16
2023-05-19T05:16:43.804Z,102335.75
2023-05-19T05:17:44.286Z,102340.95
2023-05-19T05:18:45.112Z,102346.13
2023-05-19T05:19:45.258Z,102351.14
2023-05-19T05:20:45.711Z,102355.79
2023-05-19T05:21:46.470Z,102360.50
2023-05-19T05:22:46.988Z,102364.55
2023-05-19T05:23:47.283Z,102368.01
2023-05-19T05:24:47.598Z,102371.72
2023-05-19T05:25:48.077Z,102374.80
2023-05-19T05:26:48.261Z,102377.56
2023-05-19T05:27:48.686Z,102380.45
2023-05-19T05:28:49.427Z,102383.08
2023-05-19T05:28:58.085Z,101746.43
2023-05-19T05:29:59.369Z,102423.86
2023-05-19T05:30:59.082Z,102423.46
2023-05-19T05:31:59.747Z,102423.13
2023-05-19T05:33:00.315Z,102423.13
2023-05-19T05:34:00.698Z,102422.64
2023-05-19T05:35:01.413Z,102422.27
2023-05-19T05:36:01.938Z,102422.61
2023-05-19T05:37:02.478Z,102421.75
2023-05-19T05:38:03.081Z,102422.27
2023-05-19T05:39:03.544Z,102422.28
2023-05-19T05:40:03.657Z,102422.41
2023-05-19T05:41:04.446Z,102422.67
2023-05-19T05:42:05.284Z,102423.40
2023-05-19T05:43:05.266Z,102423.13
2023-05-19T05:44:05.940Z,102423.34
2023-05-19T05:45:06.039Z,102422.96
2023-05-19T05:46:06.753Z,102423.09
2023-05-19T05:47:06.992Z,102422.97
2023-05-19T05:48:07.913Z,102423.55
2023-05-19T05:49:08.780Z,102423.98
2023-05-19T05:50:09.541Z,102423.61
2023-05-19T05:51:10.133Z,102424.01
2023-05-19T05:52:10.809Z,102424.47
2023-05-19T05:53:11.440Z,102425.01
2023-05-19T05:54:12.107Z,102425.10
2023-05-19T05:55:13.900Z,102425.31
2023-05-19T05:56:13.508Z,102425.52
2023-05-19T05:57:14.056Z,102425.91
2023-05-19T05:58:14.629Z,102426.80
2023-05-19T05:59:15.234Z,102426.75
2023-05-19T06:00:16.193Z,102426.65
2023-05-19T06:00:24.852Z,101553.81
2023-05-19T06:01:24.911Z,102426.67
2023-05-19T06:02:25.619Z,102426.27
2023-05-19T06:03:26.109Z,102426.47
2023-05-19T06:04:26.638Z,102426.44
2023-05-19T06:05:27.420Z,102426.19
2023-05-19T06:06:28.015Z,102426.45
2023-05-19T06:07:28.669Z,102426.34
2023-05-19T06:08:28.769Z,102426.19
2023-05-19T06:09:29.247Z,102426.45
2023-05-19T06:10:30.129Z,102425.97
2023-05-19T06:11:30.790Z,102425.63
2023-05-19T06:12:31.379Z,102426.11
2023-05-19T06:13:32.123Z,102425.47
2023-05-19T06:14:32.186Z,102425.47
2023-05-19T06:15:32.989Z,102425.42
2023-05-19T06:16:33.698Z,102425.23
2023-05-19T06:17:34.316Z,102425.42
2023-05-19T06:18:34.994Z,102424.81
2023-05-19T06:19:35.603Z,102424.40
2023-05-19T06:20:36.390Z,102423.89
2023-05-19T06:21:36.891Z,102423.78
2023-05-19T06:22:37.062Z,102423.14
2023-05-19T06:23:37.243Z,102422.64
2023-05-19T06:24:39.543Z,102421.61
2023-05-19T06:25:38.675Z,102421.41
2023-05-19T06:26:39.469Z,102421.16
2023-05-19T06:27:40.309Z,102420.15
2023-05-19T06:28:40.602Z,102419.56
2023-05-19T06:29:41.007Z,102419.01
2023-05-19T06:30:41.298Z,102418.44
2023-05-19T06:31:42.167Z,102417.13
2023-05-19T06:32:42.751Z,102416.90
2023-05-19T06:32:51.943Z,101609.43
2023-05-19T06:33:51.920Z,102405.69
2023-05-19T06:34:52.625Z,102405.39
2023-05-19T06:35:54.050Z,102405.72
2023-05-19T06:36:53.116Z,102405.55
2023-05-19T06:37:53.828Z,102405.88
2023-05-19T06:38:54.156Z,102406.50
2023-05-19T06:39:54.249Z,102406.08
2023-05-19T06:40:54.223Z,102405.69
2023-05-19T06:41:55.059Z,102405.86
2023-05-19T06:42:55.776Z,102405.11
2023-05-19T06:43:55.826Z,102405.16
2023-05-19T06:44:56.467Z,102405.00
2023-05-19T06:45:57.225Z,102404.80
2023-05-19T06:46:58.039Z,102404.93
2023-05-19T06:47:58.770Z,102404.54
2023-05-19T06:48:59.156Z,102403.83
2023-05-19T06:49:59.244Z,102403.48
2023-05-19T06:50:59.785Z,102403.21
2023-05-19T06:52:00.621Z,102402.39
2023-05-19T06:53:01.380Z,102401.60
2023-05-19T06:54:01.658Z,102401.20
2023-05-19T06:55:03.304Z,102400.69
2023-05-19T06:56:02.563Z,102400.49
2023-05-19T06:57:02.708Z,102399.55
2023-05-19T06:58:03.324Z,102398.77
2023-05-19T06:59:03.471Z,102398.64
2023-05-19T06:59:26.531Z,102396.58
2023-05-19T07:00:26.585Z,102393.01
2023-05-19T07:01:27.089Z,102393.14
2023-05-19T07:02:27.661Z,102393.30
2023-05-19T07:03:28.699Z,102393.24
2023-05-19T07:04:32.402Z,102393.02
2023-05-19T07:05:30.003Z,102393.38
2023-05-19T07:06:30.369Z,102393.51
2023-05-19T07:07:31.222Z,102393.97
2023-05-19T07:08:31.675Z,102393.55
2023-05-19T07:09:32.237Z,102393.79
2023-05-19T07:10:34.151Z,102392.71
2023-05-19T07:11:33.554Z,102392.56
2023-05-19T07:12:34.079Z,102392.27
2023-05-19T07:13:34.618Z,102391.84
2023-05-19T07:14:40.492Z,102391.47
2023-05-19T07:15:40.999Z,102390.84
2023-05-19T07:16:41.098Z,102390.91
2023-05-19T07:17:41.360Z,102390.11
2023-05-19T07:18:41.849Z,102390.52
2023-05-19T07:19:42.605Z,102389.77
2023-05-19T07:20:43.581Z,102389.56
2023-05-19T07:21:43.630Z,102388.57
2023-05-19T07:22:43.754Z,102387.86
2023-05-19T07:23:44.600Z,102387.59
2023-05-19T07:24:45.057Z,102386.53
2023-05-19T07:25:45.771Z,102386.41
2023-05-19T07:26:46.098Z,102386.04
2023-05-19T07:27:46.562Z,102385.81
2023-05-19T07:28:46.732Z,102385.66
2023-05-19T07:29:47.274Z,102385.06
2023-05-19T07:30:02.120Z,102378.38
2023-05-19T07:31:02.379Z,102377.57
2023-05-19T07:32:02.377Z,102377.49
2023-05-19T07:33:02.994Z,102377.02
2023-05-19T07:34:03.604Z,102377.51
2023-05-19T07:35:04.470Z,102377.30
2023-05-19T07:36:04.982Z,102377.65
2023-05-19T07:37:05.686Z,102377.40
2023-05-19T07:38:06.121Z,102377.57
2023-05-19T07:39:06.415Z,102377.38
2023-05-19T07:40:06.626Z,102376.84
2023-05-19T07:41:07.173Z,102376.34
2023-05-19T07:42:07.230Z,102376.30
2023-05-19T07:43:07.858Z,102376.36
2023-05-19T07:44:08.675Z,102375.78
2023-05-19T07:45:11.937Z,102375.28
2023-05-19T07:46:10.588Z,102374.86
2023-05-19T07:47:10.628Z,102375.08
2023-05-19T07:48:11.209Z,102374.48
2023-05-19T07:49:11.912Z,102374.41
2023-05-19T07:50:12.604Z,102373.53
2023-05-19T07:51:13.187Z,102373.22
2023-05-19T07:52:13.894Z,102372.78
2023-05-19T07:53:14.546Z,102372.65
2023-05-19T07:54:14.801Z,102371.94
2023-05-19T07:55:15.635Z,102371.27
2023-05-19T07:56:16.360Z,102370.86
2023-05-19T07:57:16.526Z,102370.48
2023-05-19T07:58:17.310Z,102369.78
2023-05-19T07:59:17.650Z,102369.06
2023-05-19T07:59:28.533Z,102356.24
2023-05-19T08:00:27.891Z,102347.20
2023-05-19T08:01:28.473Z,102347.97
2023-05-19T08:02:29.465Z,102348.01
2023-05-19T08:03:30.353Z,102348.03
2023-05-19T08:04:30.821Z,102348.21
2023-05-19T08:05:31.710Z,102348.40
2023-05-19T08:06:32.403Z,102348.45
2023-05-19T08:07:34.000Z,102348.00
2023-05-19T08:08:33.639Z,102348.36
2023-05-19T08:09:34.141Z,102348.62
2023-05-19T08:10:35.113Z,102349.04
2023-05-19T08:11:36.716Z,102349.31
2023-05-19T08:12:36.393Z,102349.69
2023-05-19T08:13:36.908Z,102350.08
2023-05-19T08:14:37.711Z,102350.16
2023-05-19T08:15:38.445Z,102350.06
2023-05-19T08:16:39.073Z,102349.84
2023-05-19T08:17:39.784Z,102349.52
2023-05-19T08:18:40.693Z,102349.34
2023-05-19T08:19:41.318Z,102349.00
2023-05-19T08:20:42.053Z,102348.55
2023-05-19T08:21:42.529Z,102347.94
2023-05-19T08:22:42.967Z,102347.84
2023-05-19T08:23:43.101Z,102347.14
2023-05-19T08:24:43.835Z,102346.69
2023-05-19T08:25:44.353Z,102346.01
2023-05-19T08:26:44.893Z,102345.49
2023-05-19T08:27:45.385Z,102345.44
2023-05-19T08:28:45.987Z,102344.97
2023-05-19T08:29:46.586Z,102344.58
2023-05-19T08:30:47.285Z,102344.02
2023-05-19T08:31:00.458Z,102342.68
2023-05-19T08:32:00.640Z,102337.47
2023-05-19T08:33:01.396Z,102337.51
2023-05-19T08:34:02.173Z,102337.45
2023-05-19T08:35:02.735Z,102337.23
2023-05-19T08:36:04.316Z,102336.96
2023-05-19T08:37:03.650Z,102337.16
2023-05-19T08:38:03.944Z,102336.69
2023-05-19T08:39:04.666Z,102336.25
2023-05-19T08:40:05.674Z,102335.72
2023-05-19T08:41:06.249Z,102334.84
2023-05-19T08:42:07.130Z,102334.48
2023-05-19T08:43:07.679Z,102333.83
2023-05-19T08:44:08.164Z,102333.12
2023-05-19T08:45:08.581Z,102332.17
2023-05-19T08:46:08.953Z,102330.95
2023-05-19T08:47:09.480Z,102330.23
2023-05-19T08:48:09.898Z,102329.14
2023-05-19T08:49:10.353Z,102327.95
2023-05-19T08:50:10.807Z,102327.38
2023-05-19T08:51:11.295Z,102325.94
2023-05-19T08:52:11.561Z,102324.97
2023-05-19T08:53:21.378Z,102324.00
2023-05-19T08:54:12.615Z,102323.67
2023-05-19T08:55:13.178Z,102321.66
2023-05-19T08:56:13.675Z,102320.52
2023-05-19T08:57:14.496Z,102319.33
2023-05-19T08:58:14.625Z,102318.11
2023-05-19T08:59:15.098Z,102316.88
2023-05-19T09:00:15.591Z,102316.14
2023-05-19T09:01:16.233Z,102315.48
2023-05-19T09:01:28.438Z,102299.80
2023-05-19T09:02:28.801Z,102300.06
2023-05-19T09:03:29.391Z,102300.06
2023-05-19T09:04:30.340Z,102299.55
2023-05-19T09:05:30.067Z,102298.86
2023-05-19T09:06:30.512Z,102298.17
2023-05-19T09:07:31.408Z,102297.15
2023-05-19T09:08:32.187Z,102296.58
2023-05-19T09:09:32.727Z,102295.51
2023-05-19T09:10:33.631Z,102295.26
2023-05-19T09:11:34.300Z,102294.86
2023-05-19T09:12:35.287Z,102294.20
2023-05-19T09:13:35.906Z,102294.11
2023-05-19T09:14:36.644Z,102293.60
2023-05-19T09:15:37.353Z,102292.78
2023-05-19T09:16:38.161Z,102292.38
2023-05-19T09:17:38.465Z,102291.16
2023-05-19T09:18:39.130Z,102290.11
2023-05-19T09:19:39.789Z,102289.02
2023-05-19T09:20:40.412Z,102288.20
2023-05-19T09:21:41.348Z,102287.70
2023-05-19T09:22:41.935Z,102286.80
2023-05-19T09:23:42.057Z,102286.50
2023-05-19T09:24:42.766Z,102286.00
2023-05-19T09:25:43.435Z,102285.61
2023-05-19T09:26:43.563Z,102284.85
2023-05-19T09:27:44.186Z,102284.37
2023-05-19T09:28:44.642Z,102283.48
2023-05-19T09:29:45.112Z,102282.56
2023-05-19T09:30:45.762Z,102281.65
2023-05-19T09:31:46.347Z,102281.10
2023-05-19T09:32:49.527Z,102280.08
2023-05-19T09:32:58.161Z,102276.28
2023-05-19T09:33:58.571Z,102266.91
2023-05-19T09:34:59.124Z,102266.63
2023-05-19T09:35:59.723Z,102266.50
2023-05-19T09:37:00.318Z,102266.19
2023-05-19T09:38:00.701Z,102266.26
2023-05-19T09:39:01.170Z,102266.28
2023-05-19T09:40:01.902Z,102266.27
2023-05-19T09:41:01.866Z,102266.05
2023-05-19T09:42:02.527Z,102266.13
2023-05-19T09:43:03.168Z,102265.66
2023-05-19T09:44:03.804Z,102265.82
2023-05-19T09:45:04.529Z,102265.50
2023-05-19T09:46:05.260Z,102264.94
2023-05-19T09:47:05.893Z,102264.81
2023-05-19T09:48:06.571Z,102264.81
2023-05-19T09:49:07.145Z,102264.92
2023-05-19T09:50:07.801Z,102264.80
2023-05-19T09:51:08.469Z,102264.27
2023-05-19T09:52:10.073Z,102263.75
2023-05-19T09:53:09.844Z,102263.86
2023-05-19T09:54:10.461Z,102263.55
2023-05-19T09:55:11.350Z,102262.72
2023-05-19T09:56:11.903Z,102262.25
2023-05-19T09:57:12.410Z,102262.00
2023-05-19T09:58:13.158Z,102261.23
2023-05-19T09:59:13.614Z,102260.44
2023-05-19T10:00:14.566Z,102259.80
2023-05-19T10:01:15.242Z,102259.61
2023-05-19T10:02:15.738Z,102259.05
2023-05-19T10:03:16.175Z,102258.58
2023-05-19T10:04:16.813Z,102258.21
2023-05-19T10:05:17.855Z,102257.28
2023-05-19T10:05:27.672Z,102256.70
2023-05-19T10:06:27.820Z,102247.63
2023-05-19T10:07:28.644Z,102248.00
2023-05-19T10:08:29.262Z,102247.91
2023-05-19T10:09:29.842Z,102247.17
2023-05-19T10:10:30.421Z,102245.99
2023-05-19T10:11:31.102Z,102245.95
2023-05-19T10:12:31.789Z,102245.19
2023-05-19T10:13:32.455Z,102244.91
2023-05-19T10:14:33.174Z,102244.53
2023-05-19T10:15:40.636Z,102244.15
2023-05-19T10:16:34.591Z,102243.66
2023-05-19T10:17:35.301Z,102243.07
2023-05-19T10:18:37.595Z,102243.33
2023-05-19T10:19:36.490Z,102243.01
2023-05-19T10:20:37.072Z,102242.31
2023-05-19T10:21:37.687Z,102242.50
2023-05-19T10:22:38.365Z,102241.70
2023-05-19T10:23:38.979Z,102241.80
2023-05-19T10:24:39.974Z,102242.14
2023-05-19T10:25:40.770Z,102241.77
2023-05-19T10:26:41.512Z,102241.02
2023-05-19T10:27:42.164Z,102240.45
2023-05-19T10:28:42.720Z,102239.83
2023-05-19T10:29:43.388Z,102239.45
2023-05-19T10:30:43.980Z,102238.23
2023-05-19T10:31:44.287Z,102237.34
2023-05-19T10:32:45.088Z,102236.17
2023-05-19T10:33:45.241Z,102235.36
2023-05-19T10:34:45.939Z,102234.32
2023-05-19T10:35:47.311Z,102233.80
2023-05-19T10:36:47.510Z,102233.19
2023-05-19T10:37:47.710Z,102232.48
2023-05-19T10:37:56.312Z,102216.98
2023-05-19T10:38:57.157Z,102218.07
2023-05-19T10:39:57.404Z,102218.42
2023-05-19T10:40:58.295Z,102217.58
2023-05-19T10:41:58.966Z,102217.19
2023-05-19T10:42:59.753Z,102217.53
2023-05-19T10:44:00.157Z,102217.42
2023-05-19T10:45:00.894Z,102217.22
2023-05-19T10:46:01.481Z,102216.74
2023-05-19T10:47:02.244Z,102216.23
2023-05-19T10:48:02.806Z,102215.94
2023-05-19T10:49:03.528Z,102216.00
2023-05-19T10:50:03.556Z,102215.42
2023-05-19T10:51:04.244Z,102214.89
2023-05-19T10:52:04.927Z,102213.22
2023-05-19T10:53:05.874Z,102212.37
2023-05-19T10:54:06.445Z,102211.66
2023-05-19T10:55:07.186Z,102211.10
2023-05-19T10:56:07.927Z,102210.47
2023-05-19T10:57:08.132Z,102210.36
2023-05-19T10:58:08.817Z,102209.98
2023-05-19T10:59:09.458Z,102209.36
2023-05-19T11:00:10.220Z,102208.95
2023-05-19T11:01:10.932Z,102208.02
2023-05-19T11:02:11.144Z,102207.02
2023-05-19T11:03:12.004Z,102206.09
2023-05-19T11:04:12.020Z,102205.23
2023-05-19T11:05:12.615Z,102204.44
2023-05-19T11:06:13.110Z,102204.36
2023-05-19T11:07:13.930Z,102203.64
2023-05-19T11:08:15.231Z,102203.27
2023-05-19T11:09:15.200Z,102202.78
2023-05-19T11:10:15.766Z,102202.23
2023-05-19T11:11:16.683Z,102201.37
2023-05-19T11:11:25.825Z,102193.39
2023-05-19T11:12:25.806Z,102187.08
2023-05-19T11:13:26.313Z,102187.36
2023-05-19T11:14:26.869Z,102186.86